createdAt,value
2023-05-24T00:00:32.849Z,4.88
2023-05-24T00:03:04.893Z,5.00
2023-05-24T00:05:33.090Z,4.95
2023-05-24T00:08:01.302Z,4.75
2023-05-24T00:10:29.381Z,4.50
2023-05-24T00:12:57.515Z,5.05
2023-05-24T00:15:25.547Z,4.20
2023-05-24T00:17:53.609Z,4.95
2023-05-24T00:20:23.064Z,4.75
2023-05-24T00:22:51.793Z,4.30
2023-05-24T00:25:19.871Z,4.70
2023-05-24T00:27:47.957Z,4.63
2023-05-24T00:30:16.137Z,5.13
2023-05-24T00:32:44.209Z,4.70
2023-05-24T00:35:12.274Z,4.18
2023-05-24T00:37:45.474Z,4.63
2023-05-24T00:40:14.155Z,4.90
2023-05-24T00:42:42.079Z,5.07
2023-05-24T00:45:11.106Z,5.95
2023-05-24T00:47:39.310Z,4.65
2023-05-24T00:50:09.647Z,5.25
2023-05-24T00:52:38.094Z,5.18
2023-05-24T00:55:09.086Z,5.05
2023-05-24T00:57:37.757Z,5.55
2023-05-24T01:00:08.358Z,5.88
2023-05-24T01:02:37.974Z,4.80
2023-05-24T01:05:07.047Z,5.35
2023-05-24T01:07:42.965Z,5.07
2023-05-24T01:10:24.293Z,5.05
2023-05-24T01:13:01.055Z,5.10
2023-05-24T01:15:34.964Z,5.30
2023-05-24T01:18:08.024Z,5.07
2023-05-24T01:20:39.226Z,5.15
2023-05-24T01:23:32.360Z,5.40
2023-05-24T01:26:18.917Z,5.28
2023-05-24T01:28:49.857Z,5.30
2023-05-24T01:31:19.165Z,4.88
2023-05-24T01:33:47.119Z,5.90
2023-05-24T01:36:15.178Z,5.55
2023-05-24T01:38:43.253Z,5.70
2023-05-24T01:41:37.579Z,5.28
2023-05-24T01:44:14.978Z,6.18
2023-05-24T01:46:43.336Z,5.25
2023-05-24T01:49:20.526Z,5.25
2023-05-24T01:51:52.773Z,5.18
2023-05-24T01:54:24.565Z,5.40
2023-05-24T01:56:55.218Z,5.50
2023-05-24T01:59:27.238Z,5.40
2023-05-24T02:01:55.917Z,5.43
2023-05-24T02:04:26.065Z,5.20
2023-05-24T02:06:54.033Z,6.50
2023-05-24T02:09:22.000Z,5.85
2023-05-24T02:11:50.008Z,5.60
2023-05-24T02:14:20.061Z,5.95
2023-05-24T02:16:51.205Z,5.28
2023-05-24T02:19:19.328Z,6.00
2023-05-24T02:21:47.252Z,5.45
2023-05-24T02:24:15.282Z,6.30
2023-05-24T02:26:43.367Z,5.97
2023-05-24T02:29:11.656Z,5.78
2023-05-24T02:31:39.792Z,5.78
2023-05-24T02:34:09.087Z,5.45
2023-05-24T02:36:37.455Z,5.22
2023-05-24T02:39:06.260Z,6.30
2023-05-24T02:41:34.094Z,5.78
2023-05-24T02:44:01.959Z,6.13
2023-05-24T02:46:30.100Z,6.50
2023-05-24T02:48:58.058Z,7.22
2023-05-24T02:51:27.322Z,6.38
2023-05-24T02:53:55.482Z,7.18
2023-05-24T02:56:23.362Z,6.20
2023-05-24T02:58:51.837Z,6.03
2023-05-24T03:01:19.965Z,5.75
2023-05-24T03:03:48.008Z,5.90
2023-05-24T03:06:16.363Z,6.35
2023-05-24T03:08:46.226Z,5.72
2023-05-24T03:11:14.203Z,5.68
2023-05-24T03:13:42.518Z,5.90
2023-05-24T03:16:10.749Z,5.65
2023-05-24T03:18:38.661Z,5.70
2023-05-24T03:21:07.569Z,6.07
2023-05-24T03:23:36.508Z,6.10
2023-05-24T03:26:05.892Z,6.03
2023-05-24T03:28:33.943Z,6.68
2023-05-24T03:31:02.043Z,6.20
2023-05-24T03:33:29.897Z,6.43
2023-05-24T03:35:57.781Z,6.60
2023-05-24T03:38:26.041Z,5.68
2023-05-24T03:40:54.044Z,6.28
2023-05-24T03:43:23.323Z,5.80
2023-05-24T03:45:51.763Z,5.55
2023-05-24T03:48:20.928Z,6.60
2023-05-24T03:50:49.071Z,6.65
2023-05-24T03:53:17.299Z,6.50
2023-05-24T03:55:45.439Z,6.57
2023-05-24T03:58:13.718Z,6.30
2023-05-24T04:00:43.478Z,7.03
2023-05-24T04:03:12.216Z,6.15
2023-05-24T04:05:40.407Z,6.57
2023-05-24T04:08:08.668Z,6.93
2023-05-24T04:10:36.612Z,6.10
2023-05-24T04:13:04.482Z,5.93
2023-05-24T04:15:33.150Z,6.47
2023-05-24T04:18:03.462Z,6.68
2023-05-24T04:20:31.594Z,6.05
2023-05-24T04:23:00.184Z,6.22
2023-05-24T04:25:28.103Z,6.60
2023-05-24T04:27:56.232Z,6.30
2023-05-24T04:30:24.379Z,5.90
2023-05-24T04:32:52.852Z,5.25
2023-05-24T04:35:22.371Z,6.32
2023-05-24T04:37:50.843Z,5.45
2023-05-24T04:40:20.754Z,5.82
2023-05-24T04:42:48.659Z,6.13
2023-05-24T04:45:16.955Z,5.25
2023-05-24T04:47:45.005Z,5.32
2023-05-24T04:50:12.960Z,5.03
2023-05-24T04:52:42.406Z,4.72
2023-05-24T04:55:11.357Z,5.55
2023-05-24T04:57:39.277Z,5.28
2023-05-24T05:00:08.828Z,5.68
2023-05-24T05:02:36.988Z,5.45
2023-05-24T05:05:05.428Z,4.82
2023-05-24T05:07:33.445Z,4.97
2023-05-24T05:10:02.697Z,4.55
2023-05-24T05:12:30.570Z,4.88
2023-05-24T05:14:58.688Z,4.47
2023-05-24T05:17:26.654Z,4.57
2023-05-24T05:19:54.576Z,4.80
2023-05-24T05:22:22.818Z,4.80
2023-05-24T05:24:50.962Z,4.47
2023-05-24T05:27:20.217Z,4.10
2023-05-24T05:29:48.214Z,3.90
2023-05-24T05:32:16.333Z,3.55
2023-05-24T05:34:44.273Z,4.25
2023-05-24T05:37:12.409Z,4.60
2023-05-24T05:39:40.349Z,3.70
2023-05-24T05:42:08.671Z,4.25
2023-05-24T05:44:38.054Z,3.80
2023-05-24T05:47:07.474Z,4.72
2023-05-24T05:49:36.409Z,3.83
2023-05-24T05:52:04.706Z,3.97
2023-05-24T05:54:32.743Z,3.22
2023-05-24T05:57:01.761Z,3.20
2023-05-24T05:59:29.853Z,3.15
2023-05-24T06:01:59.067Z,3.30
2023-05-24T06:04:26.964Z,3.20
2023-05-24T06:06:55.035Z,3.30
2023-05-24T06:09:22.894Z,2.83
2023-05-24T06:11:50.848Z,3.45
2023-05-24T06:14:19.984Z,3.20
2023-05-24T06:16:48.235Z,3.42
2023-05-24T06:19:18.335Z,3.20
2023-05-24T06:21:48.281Z,3.92
2023-05-24T06:24:20.591Z,4.18
2023-05-24T06:26:49.096Z,3.22
2023-05-24T06:29:16.987Z,3.60
2023-05-24T06:31:44.945Z,3.08
2023-05-24T06:34:13.027Z,3.58
2023-05-24T06:36:43.134Z,3.20
2023-05-24T06:39:11.429Z,2.85
2023-05-24T06:41:40.232Z,2.95
2023-05-24T06:44:08.180Z,3.10
2023-05-24T06:46:36.571Z,3.17
2023-05-24T06:49:04.785Z,2.90
2023-05-24T06:51:33.947Z,2.95
2023-05-24T06:54:04.213Z,2.97
2023-05-24T06:56:32.182Z,3.33
2023-05-24T06:59:00.632Z,3.03
2023-05-24T07:01:30.663Z,2.70
2023-05-24T07:03:59.270Z,2.83
2023-05-24T07:06:27.145Z,2.78
2023-05-24T07:08:55.047Z,2.72
2023-05-24T07:11:24.534Z,2.30
2023-05-24T07:13:52.692Z,2.60
2023-05-24T07:16:20.771Z,2.63
2023-05-24T07:18:48.885Z,2.38
2023-05-24T07:21:16.806Z,2.50
2023-05-24T07:23:44.693Z,2.55
2023-05-24T07:26:13.037Z,2.55
2023-05-24T07:28:42.348Z,2.72
2023-05-24T07:31:10.373Z,2.60
2023-05-24T07:33:38.975Z,2.80
2023-05-24T07:36:07.719Z,2.67
2023-05-24T07:38:36.165Z,2.72
2023-05-24T07:41:05.518Z,2.78
2023-05-24T07:43:33.593Z,3.60
2023-05-24T07:46:02.967Z,2.97
2023-05-24T07:48:31.062Z,2.80
2023-05-24T07:50:59.016Z,2.65
2023-05-24T07:53:26.994Z,2.80
2023-05-24T07:55:55.281Z,2.60
2023-05-24T07:58:23.190Z,2.38
2023-05-24T08:00:51.153Z,2.72
2023-05-24T08:03:20.727Z,2.63
2023-05-24T08:05:48.747Z,2.55
2023-05-24T08:08:16.669Z,2.67
2023-05-24T08:10:44.956Z,2.22
2023-05-24T08:13:12.985Z,2.50
2023-05-24T08:15:41.318Z,2.45
2023-05-24T08:18:09.805Z,2.58
2023-05-24T08:20:40.987Z,2.42
2023-05-24T08:23:09.086Z,2.33
2023-05-24T08:25:37.296Z,2.30
2023-05-24T08:28:05.229Z,2.60
2023-05-24T08:30:33.447Z,2.30
2023-05-24T08:33:01.547Z,2.50
2023-05-24T08:35:29.548Z,2.40
2023-05-24T08:37:58.960Z,2.22
2023-05-24T08:40:27.093Z,2.22
2023-05-24T08:42:56.965Z,2.35
2023-05-24T08:45:28.059Z,1.98
2023-05-24T08:47:58.296Z,2.25
2023-05-24T08:50:26.859Z,2.28
2023-05-24T08:52:55.800Z,1.98
2023-05-24T08:55:25.847Z,2.15
2023-05-24T08:57:54.021Z,2.40
2023-05-24T09:00:22.873Z,2.03
2023-05-24T09:02:51.547Z,2.28
2023-05-24T09:05:21.929Z,1.98
2023-05-24T09:07:51.507Z,2.03
2023-05-24T09:10:22.631Z,2.15
2023-05-24T09:12:56.666Z,2.30
2023-05-24T09:15:25.080Z,2.20
2023-05-24T09:17:53.122Z,2.13
2023-05-24T09:20:21.882Z,2.60
2023-05-24T09:22:53.087Z,2.17
2023-05-24T09:25:21.538Z,2.00
2023-05-24T09:27:55.017Z,2.50
2023-05-24T09:30:23.383Z,2.03
2023-05-24T09:33:02.255Z,2.08
2023-05-24T09:35:31.354Z,1.95
2023-05-24T09:38:00.867Z,2.08
2023-05-24T09:40:30.147Z,2.00
2023-05-24T09:43:07.409Z,2.30
2023-05-24T09:45:40.558Z,2.33
2023-05-24T09:48:12.454Z,2.22
2023-05-24T09:50:41.475Z,2.00
2023-05-24T09:53:09.768Z,2.13
2023-05-24T09:55:38.443Z,2.00
2023-05-24T09:58:11.677Z,2.22
2023-05-24T10:00:41.690Z,2.60
2023-05-24T10:03:12.244Z,2.10
2023-05-24T10:05:43.952Z,2.00
2023-05-24T10:08:14.469Z,2.42
2023-05-24T10:10:43.584Z,2.55
2023-05-24T10:13:16.081Z,2.22
2023-05-24T10:15:44.852Z,2.17
2023-05-24T10:18:14.179Z,2.17
2023-05-24T10:20:43.227Z,2.50
2023-05-24T10:23:16.082Z,2.47
2023-05-24T10:25:51.358Z,2.70
2023-05-24T10:28:23.690Z,2.30
2023-05-24T10:31:02.948Z,2.55
2023-05-24T10:33:32.413Z,2.83
2023-05-24T10:36:00.872Z,2.42
2023-05-24T10:38:30.860Z,3.70
2023-05-24T10:40:59.369Z,3.20
2023-05-24T10:43:28.908Z,2.90
2023-05-24T10:45:57.210Z,2.70
2023-05-24T10:48:41.234Z,2.58
2023-05-24T10:51:32.935Z,2.72
2023-05-24T10:54:15.900Z,2.20
2023-05-24T10:56:46.992Z,2.35
2023-05-24T10:59:35.219Z,2.60
2023-05-24T11:02:04.352Z,2.15
2023-05-24T11:04:34.263Z,2.47
2023-05-24T11:07:04.723Z,2.47
2023-05-24T11:09:33.556Z,2.53
2023-05-24T11:12:07.509Z,2.30
2023-05-24T11:14:39.631Z,2.20
2023-05-24T11:17:08.277Z,2.22
2023-05-24T11:19:38.297Z,2.20
2023-05-24T11:22:09.281Z,2.28
2023-05-24T11:24:38.347Z,2.33
2023-05-24T11:27:06.986Z,2.40
2023-05-24T11:29:42.032Z,2.10
2023-05-24T11:32:10.159Z,2.90
2023-05-24T11:34:40.050Z,2.40
2023-05-24T11:37:08.266Z,2.38
2023-05-24T11:39:37.437Z,2.25
2023-05-24T11:42:06.760Z,2.25
2023-05-24T11:44:38.270Z,2.67
2023-05-24T11:47:07.977Z,2.20
2023-05-24T11:49:36.595Z,2.13
2023-05-24T11:52:05.095Z,2.00
2023-05-24T11:54:34.961Z,2.20
2023-05-24T11:57:03.633Z,2.13
2023-05-24T11:59:31.969Z,1.90
2023-05-24T12:02:02.705Z,2.80
2023-05-24T12:04:32.287Z,2.10
2023-05-24T12:07:00.825Z,1.90
2023-05-24T12:09:29.456Z,2.00
2023-05-24T12:11:58.548Z,2.00
2023-05-24T12:14:31.089Z,2.30
2023-05-24T12:16:59.959Z,2.30
2023-05-24T12:19:34.798Z,2.28
2023-05-24T12:22:06.421Z,2.40
2023-05-24T12:24:34.727Z,2.38
2023-05-24T12:27:07.030Z,2.08
2023-05-24T12:29:36.749Z,2.35
2023-05-24T12:32:05.418Z,2.03
2023-05-24T12:34:34.721Z,2.25
2023-05-24T12:37:03.797Z,2.42
2023-05-24T12:39:34.313Z,2.38
2023-05-24T12:42:04.056Z,1.85
2023-05-24T12:44:33.269Z,2.05
2023-05-24T12:47:02.512Z,2.10
2023-05-24T12:49:30.948Z,2.00
2023-05-24T12:52:01.926Z,2.65
2023-05-24T12:54:30.484Z,2.25
2023-05-24T12:57:02.717Z,2.08
2023-05-24T12:59:30.796Z,2.10
2023-05-24T13:01:58.965Z,2.20
2023-05-24T13:04:27.672Z,1.95
2023-05-24T13:06:55.995Z,2.97
2023-05-24T13:09:26.268Z,1.80
2023-05-24T13:11:55.278Z,2.30
2023-05-24T13:14:23.407Z,2.30
2023-05-24T13:16:51.505Z,2.28
2023-05-24T13:19:19.704Z,2.20
2023-05-24T13:21:47.665Z,2.28
2023-05-24T13:24:17.402Z,2.35
2023-05-24T13:26:47.235Z,2.10
2023-05-24T13:31:46.458Z,2.40
2023-05-24T13:34:14.755Z,2.33
2023-05-24T13:36:43.845Z,2.40
2023-05-24T13:39:16.157Z,2.58
2023-05-24T13:41:46.415Z,2.70
2023-05-24T13:44:14.729Z,2.90
2023-05-24T13:46:42.758Z,2.50
2023-05-24T13:49:11.983Z,3.20
2023-05-24T13:51:40.707Z,2.88
2023-05-24T13:54:08.735Z,2.30
2023-05-24T13:56:37.232Z,2.75
2023-05-24T13:59:08.598Z,2.60
2023-05-24T14:01:37.821Z,2.67
2023-05-24T14:04:07.127Z,2.50
2023-05-24T14:06:37.626Z,2.70
2023-05-24T14:09:08.073Z,2.75
2023-05-24T14:11:36.363Z,2.65
2023-05-24T14:16:37.262Z,2.90
2023-05-24T14:19:05.695Z,2.38
2023-05-24T14:21:33.689Z,2.20
2023-05-24T14:24:01.838Z,2.60
2023-05-24T14:26:29.835Z,2.53
2023-05-24T14:28:57.734Z,2.60
2023-05-24T14:31:25.769Z,2.53
2023-05-24T14:33:55.124Z,2.40
2023-05-24T14:36:25.277Z,2.58
2023-05-24T14:38:53.319Z,2.70
2023-05-24T14:41:22.645Z,3.10
2023-05-24T14:43:51.184Z,2.80
2023-05-24T14:46:19.325Z,2.72
2023-05-24T14:48:47.449Z,2.70
2023-05-24T14:51:16.763Z,2.60
2023-05-24T14:53:45.228Z,2.53
2023-05-24T14:56:14.401Z,2.40
2023-05-24T14:58:42.548Z,3.20
2023-05-24T15:01:10.557Z,2.95
2023-05-24T15:03:38.666Z,2.95
2023-05-24T15:06:06.863Z,2.90
2023-05-24T15:08:36.374Z,2.58
2023-05-24T15:11:05.177Z,2.60
2023-05-24T15:13:33.348Z,2.58
2023-05-24T15:16:01.421Z,2.42
2023-05-24T15:18:31.712Z,2.80
2023-05-24T15:20:59.654Z,2.80
2023-05-24T15:23:28.663Z,2.58
2023-05-24T15:25:58.119Z,3.75
2023-05-24T15:28:26.830Z,2.80
2023-05-24T15:30:55.199Z,2.20
2023-05-24T15:33:23.223Z,2.60
2023-05-24T15:35:51.288Z,2.47
2023-05-24T15:38:19.512Z,2.90
2023-05-24T15:40:47.517Z,2.58
2023-05-24T15:43:18.789Z,2.35
2023-05-24T15:45:48.690Z,2.75
2023-05-24T15:48:16.783Z,3.05
2023-05-24T15:51:22.065Z,2.70
2023-05-24T15:53:32.922Z,2.70
2023-05-24T15:56:00.878Z,2.60
2023-05-24T15:58:30.158Z,2.60
2023-05-24T16:00:58.263Z,2.70
2023-05-24T16:03:26.222Z,2.50
2023-05-24T16:05:54.239Z,2.60
2023-05-24T16:08:27.720Z,2.58
2023-05-24T16:10:55.947Z,2.70
2023-05-24T16:13:24.601Z,2.60
2023-05-24T16:15:53.986Z,2.55
2023-05-24T16:18:23.700Z,2.63
2023-05-24T16:20:52.751Z,2.72
2023-05-24T16:23:23.166Z,2.80
2023-05-24T16:25:51.482Z,2.58
2023-05-24T16:28:23.945Z,2.42
2023-05-24T16:30:56.081Z,3.05
2023-05-24T16:33:24.652Z,2.67
2023-05-24T16:35:56.135Z,2.85
2023-05-24T16:38:25.541Z,2.70
2023-05-24T16:40:53.830Z,2.33
2023-05-24T16:43:22.734Z,2.67
2023-05-24T16:45:51.304Z,2.67
2023-05-24T16:48:23.215Z,2.75
2023-05-24T16:50:54.082Z,2.75
2023-05-24T16:53:24.569Z,2.72
2023-05-24T16:55:53.982Z,2.60
2023-05-24T16:58:22.371Z,2.92
2023-05-24T17:00:50.647Z,2.53
2023-05-24T17:03:22.108Z,2.40
2023-05-24T17:05:50.396Z,2.20
2023-05-24T17:08:18.965Z,2.50
2023-05-24T17:10:46.837Z,2.88
2023-05-24T17:13:14.796Z,2.25
2023-05-24T17:15:42.830Z,2.30
2023-05-24T17:18:10.774Z,2.60
2023-05-24T17:20:40.473Z,2.90
2023-05-24T17:23:08.576Z,2.50
2023-05-24T17:25:36.527Z,2.80
2023-05-24T17:28:04.513Z,2.50
2023-05-24T17:30:33.362Z,2.72
2023-05-24T17:33:01.341Z,2.60
2023-05-24T17:35:29.249Z,2.30
2023-05-24T17:37:58.642Z,2.88
2023-05-24T17:40:26.569Z,2.45
2023-05-24T17:42:54.506Z,2.40
2023-05-24T17:45:22.712Z,2.83
2023-05-24T17:47:50.750Z,2.40
2023-05-24T17:50:18.701Z,2.58
2023-05-24T17:52:46.674Z,2.63
2023-05-24T17:55:15.962Z,2.78
2023-05-24T17:57:44.338Z,2.75
2023-05-24T18:00:13.540Z,2.85
2023-05-24T18:02:41.493Z,2.97
2023-05-24T18:05:10.297Z,3.00
2023-05-24T18:07:38.542Z,2.65
2023-05-24T18:10:07.760Z,2.63
2023-05-24T18:12:37.713Z,3.08
2023-05-24T18:15:06.785Z,2.83
2023-05-24T18:17:34.760Z,3.00
2023-05-24T18:20:02.921Z,3.72
2023-05-24T18:22:31.032Z,3.08
2023-05-24T18:24:59.147Z,3.70
2023-05-24T18:27:27.298Z,3.17
2023-05-24T18:29:56.695Z,2.85
2023-05-24T18:32:24.616Z,3.05
2023-05-24T18:34:52.970Z,3.67
2023-05-24T18:37:23.113Z,3.58
2023-05-24T18:39:51.137Z,3.90
2023-05-24T18:42:19.063Z,3.30
2023-05-24T18:44:47.028Z,3.55
2023-05-24T18:47:16.336Z,3.70
2023-05-24T18:49:44.440Z,3.50
2023-05-24T18:52:12.473Z,3.60
2023-05-24T18:54:40.335Z,3.20
2023-05-24T18:57:08.648Z,3.13
2023-05-24T18:59:37.523Z,3.20
2023-05-24T19:02:06.208Z,3.33
2023-05-24T19:04:35.663Z,2.88
2023-05-24T19:07:03.545Z,3.40
2023-05-24T19:09:31.521Z,2.50
2023-05-24T19:12:00.232Z,3.08
2023-05-24T19:14:31.093Z,2.95
2023-05-24T19:16:59.930Z,3.03
2023-05-24T19:19:30.404Z,3.22
2023-05-24T19:21:59.659Z,2.63
2023-05-24T19:24:27.524Z,2.78
2023-05-24T19:26:55.538Z,2.88
2023-05-24T19:29:23.411Z,2.53
2023-05-24T19:31:51.864Z,3.08
2023-05-24T19:34:20.185Z,3.10
2023-05-24T19:36:48.091Z,2.70
2023-05-24T19:39:17.356Z,2.60
2023-05-24T19:41:45.391Z,2.50
2023-05-24T19:44:13.261Z,3.10
2023-05-24T19:46:41.361Z,2.90
2023-05-24T19:49:09.395Z,2.88
2023-05-24T19:51:37.524Z,3.30
2023-05-24T19:54:06.119Z,2.70
2023-05-24T19:56:35.434Z,2.90
2023-05-24T19:59:03.445Z,2.70
2023-05-24T20:01:31.708Z,2.78
2023-05-24T20:03:59.926Z,2.80
2023-05-24T20:06:27.902Z,3.00
2023-05-24T20:08:57.884Z,2.70
2023-05-24T20:11:25.908Z,2.90
2023-05-24T20:13:56.183Z,2.80
2023-05-24T20:16:24.287Z,2.70
2023-05-24T20:18:52.349Z,2.67
2023-05-24T20:21:20.282Z,2.65
2023-05-24T20:23:50.650Z,2.70
2023-05-24T20:26:18.729Z,2.53
2023-05-24T20:28:47.044Z,2.88
2023-05-24T20:31:16.756Z,2.30
2023-05-24T20:33:44.973Z,2.50
2023-05-24T20:36:14.926Z,3.00
2023-05-24T20:38:42.860Z,2.70
2023-05-24T20:41:11.056Z,2.28
2023-05-24T20:43:39.028Z,2.75
2023-05-24T20:46:07.093Z,2.53
2023-05-24T20:48:36.608Z,2.83
2023-05-24T20:51:04.509Z,2.70
2023-05-24T20:53:32.396Z,2.83
2023-05-24T20:56:02.036Z,3.00
2023-05-24T20:58:30.829Z,2.97
2023-05-24T21:00:59.216Z,2.90
2023-05-24T21:03:27.468Z,3.03
2023-05-24T21:05:56.716Z,2.80
2023-05-24T21:08:24.639Z,2.85
2023-05-24T21:10:55.588Z,3.05
2023-05-24T21:13:25.503Z,2.90
2023-05-24T21:15:53.551Z,2.67
2023-05-24T21:18:21.437Z,3.13
2023-05-24T21:20:49.507Z,3.10
2023-05-24T21:23:18.878Z,2.58
2023-05-24T21:25:46.773Z,2.63
2023-05-24T21:28:14.883Z,2.70
2023-05-24T21:30:42.875Z,3.00
2023-05-24T21:33:11.043Z,2.63
2023-05-24T21:35:38.953Z,3.20
2023-05-24T21:38:07.015Z,3.03
2023-05-24T21:40:36.250Z,2.80
2023-05-24T21:43:05.226Z,2.72
2023-05-24T21:45:33.274Z,2.92
2023-05-24T21:48:01.515Z,3.33
2023-05-24T21:50:29.555Z,2.70
2023-05-24T21:52:57.442Z,3.13
2023-05-24T21:55:25.564Z,3.38
2023-05-24T21:57:54.904Z,3.00
2023-05-24T22:00:23.624Z,3.05
2023-05-24T22:02:51.821Z,2.97
2023-05-24T22:05:20.294Z,2.70
2023-05-24T22:07:48.313Z,3.08
2023-05-24T22:10:16.704Z,2.85
2023-05-24T22:12:44.732Z,2.83
2023-05-24T22:15:14.053Z,3.00
2023-05-24T22:17:42.101Z,3.10
2023-05-24T22:20:11.321Z,3.28
2023-05-24T22:22:48.853Z,3.50
2023-05-24T22:25:19.594Z,3.35
2023-05-24T22:27:48.522Z,3.17
2023-05-24T22:30:18.465Z,3.20
2023-05-24T22:32:46.457Z,3.15
2023-05-24T22:35:14.400Z,3.40
2023-05-24T22:37:42.873Z,3.03
2023-05-24T22:40:11.601Z,3.30
2023-05-24T22:42:39.493Z,3.10
2023-05-24T22:45:09.222Z,3.10
2023-05-24T22:47:40.024Z,3.42
2023-05-24T22:50:09.560Z,3.55
2023-05-24T22:52:42.534Z,3.10
2023-05-24T22:55:13.223Z,3.03
2023-05-24T22:57:41.635Z,3.58
2023-05-24T23:00:11.837Z,3.30
2023-05-24T23:02:41.254Z,3.38
2023-05-24T23:05:11.621Z,2.88
2023-05-24T23:07:40.013Z,3.33
2023-05-24T23:10:09.667Z,3.28
2023-05-24T23:12:37.588Z,3.03
2023-05-24T23:15:06.638Z,3.13
2023-05-24T23:17:34.738Z,3.20
2023-05-24T23:20:05.301Z,3.10
2023-05-24T23:22:33.346Z,2.65
2023-05-24T23:25:02.570Z,3.25
2023-05-24T23:27:30.677Z,3.42
2023-05-24T23:29:58.663Z,3.30
2023-05-24T23:32:26.714Z,3.05
2023-05-24T23:34:54.633Z,3.30
2023-05-24T23:37:23.973Z,2.40
2023-05-24T23:39:52.001Z,2.70
2023-05-24T23:42:19.897Z,2.60
2023-05-24T23:44:47.845Z,2.42
2023-05-24T23:47:15.797Z,2.80
2023-05-24T23:49:43.669Z,3.10
2023-05-24T23:52:12.558Z,2.60
2023-05-24T23:54:41.971Z,2.97
2023-05-24T23:57:09.831Z,2.70
2023-05-24T23:59:37.905Z,3.05
